createdAt,value
2024-05-09T00:00:36.372Z,100.00
2024-05-09T00:03:08.392Z,100.00
2024-05-09T00:05:36.910Z,100.00
2024-05-09T00:08:04.503Z,100.00
2024-05-09T00:10:36.538Z,100.00
2024-05-09T00:13:06.981Z,100.00
2024-05-09T00:15:35.234Z,100.00
2024-05-09T00:18:03.386Z,100.00
2024-05-09T00:20:38.212Z,100.00
2024-05-09T00:23:09.346Z,100.00
2024-05-09T00:25:37.718Z,100.00
2024-05-09T00:28:05.361Z,100.00
2024-05-09T00:30:35.570Z,100.00
2024-05-09T00:33:07.019Z,100.00
2024-05-09T00:35:35.480Z,100.00
2024-05-09T00:38:03.599Z,100.00
2024-05-09T00:40:41.827Z,100.00
2024-05-09T00:43:12.418Z,100.00
2024-05-09T00:45:40.494Z,100.00
2024-05-09T00:48:09.368Z,100.00
2024-05-09T00:50:41.652Z,100.00
2024-05-09T00:53:11.984Z,100.00
2024-05-09T00:55:40.488Z,100.00
2024-05-09T00:58:11.040Z,100.00
2024-05-09T01:00:40.495Z,100.00
2024-05-09T01:03:11.506Z,100.00
2024-05-09T01:05:40.695Z,100.00
2024-05-09T01:08:08.430Z,100.00
2024-05-09T01:10:36.712Z,100.00
2024-05-09T01:13:05.784Z,100.00
2024-05-09T01:15:33.764Z,100.00
2024-05-09T01:18:04.746Z,100.00
2024-05-09T01:20:40.532Z,100.00
2024-05-09T01:23:11.160Z,100.00
2024-05-09T01:25:38.399Z,100.00
2024-05-09T01:28:06.012Z,100.00
2024-05-09T01:30:35.824Z,100.00
2024-05-09T01:33:07.393Z,100.00
2024-05-09T01:35:36.374Z,100.00
2024-05-09T01:38:03.650Z,100.00
2024-05-09T01:40:37.346Z,100.00
2024-05-09T01:43:10.956Z,100.00
2024-05-09T01:45:40.037Z,100.00
2024-05-09T01:48:08.444Z,100.00
2024-05-09T01:50:39.864Z,100.00
2024-05-09T01:53:14.577Z,100.00
2024-05-09T01:55:43.036Z,100.00
2024-05-09T01:58:10.483Z,100.00
2024-05-09T02:00:41.347Z,100.00
2024-05-09T02:03:14.398Z,100.00
2024-05-09T02:05:44.891Z,100.00
2024-05-09T02:08:18.144Z,100.00
2024-05-09T02:10:47.482Z,100.00
2024-05-09T02:13:15.875Z,100.00
2024-05-09T02:15:43.271Z,100.00
2024-05-09T02:18:11.038Z,100.00
2024-05-09T02:20:40.643Z,100.00
2024-05-09T02:23:09.292Z,100.00
2024-05-09T02:25:36.497Z,100.00
2024-05-09T02:28:03.606Z,100.00
2024-05-09T02:30:38.848Z,100.00
2024-05-09T02:33:11.282Z,100.00
2024-05-09T02:35:40.267Z,100.00
2024-05-09T02:38:11.531Z,100.00
2024-05-09T02:40:39.875Z,100.00
2024-05-09T02:43:09.818Z,100.00
2024-05-09T02:45:38.257Z,100.00
2024-05-09T02:48:06.622Z,100.00
2024-05-09T02:50:38.477Z,100.00
2024-05-09T02:53:08.793Z,100.00
2024-05-09T02:55:37.378Z,100.00
2024-05-09T02:58:04.900Z,100.00
2024-05-09T03:00:39.130Z,100.00
2024-05-09T03:03:10.800Z,100.00
2024-05-09T03:05:40.162Z,100.00
2024-05-09T03:08:08.479Z,100.00
2024-05-09T03:10:37.814Z,100.00
2024-05-09T03:13:15.062Z,100.00
2024-05-09T03:15:43.730Z,100.00
2024-05-09T03:18:11.937Z,100.00
2024-05-09T03:20:39.984Z,100.00
2024-05-09T03:23:09.380Z,100.00
2024-05-09T03:25:38.077Z,100.00
2024-05-09T03:28:05.633Z,100.00
2024-05-09T03:30:40.039Z,100.00
2024-05-09T03:33:20.496Z,100.00
2024-05-09T03:35:49.230Z,100.00
2024-05-09T03:38:17.026Z,100.00
2024-05-09T03:40:53.323Z,100.00
2024-05-09T03:43:20.371Z,100.00
2024-05-09T03:45:49.353Z,100.00
2024-05-09T03:48:17.036Z,100.00
2024-05-09T03:50:44.320Z,100.00
2024-05-09T03:53:13.920Z,100.00
2024-05-09T03:55:41.416Z,100.00
2024-05-09T03:58:08.684Z,100.00
2024-05-09T04:00:39.179Z,100.00
2024-05-09T04:03:10.474Z,100.00
2024-05-09T04:05:42.086Z,100.00
2024-05-09T04:08:11.501Z,100.00
2024-05-09T04:10:38.796Z,100.00
2024-05-09T04:13:05.931Z,100.00
2024-05-09T04:15:33.006Z,100.00
2024-05-09T04:18:00.735Z,100.00
2024-05-09T04:20:36.263Z,100.00
2024-05-09T04:23:08.270Z,100.00
2024-05-09T04:25:36.393Z,100.00
2024-05-09T04:28:03.740Z,100.00
2024-05-09T04:30:37.373Z,100.00
2024-05-09T04:33:09.359Z,100.00
2024-05-09T04:35:38.908Z,100.00
2024-05-09T04:38:07.602Z,100.00
2024-05-09T04:40:36.790Z,100.00
2024-05-09T04:43:15.964Z,100.00
2024-05-09T04:45:43.164Z,100.00
2024-05-09T04:48:10.725Z,100.00
2024-05-09T04:50:39.449Z,100.00
2024-05-09T04:53:10.028Z,100.00
2024-05-09T04:55:38.564Z,100.00
2024-05-09T04:58:09.021Z,100.00
2024-05-09T05:00:38.766Z,100.00
2024-05-09T05:03:12.756Z,100.00
2024-05-09T05:05:43.620Z,100.00
2024-05-09T05:08:18.184Z,100.00
2024-05-09T05:10:49.018Z,100.00
2024-05-09T05:13:18.292Z,100.00
2024-05-09T05:15:47.470Z,100.00
2024-05-09T05:18:15.942Z,100.00
2024-05-09T05:20:43.555Z,100.00
2024-05-09T05:23:15.744Z,100.00
2024-05-09T05:25:43.097Z,100.00
2024-05-09T05:28:10.961Z,100.00
2024-05-09T05:30:38.808Z,100.00
2024-05-09T05:33:07.165Z,100.00
2024-05-09T05:35:35.147Z,100.00
2024-05-09T05:38:03.409Z,100.00
2024-05-09T05:40:37.083Z,100.00
2024-05-09T05:43:08.302Z,100.00
2024-05-09T05:45:35.355Z,100.00
2024-05-09T05:48:05.902Z,100.00
2024-05-09T05:50:36.714Z,100.00
2024-05-09T05:53:07.813Z,100.00
2024-05-09T05:55:36.645Z,100.00
2024-05-09T05:58:04.023Z,100.00
2024-05-09T06:00:38.140Z,100.00
2024-05-09T06:03:14.297Z,100.00
2024-05-09T06:05:46.023Z,100.00
2024-05-09T06:08:13.246Z,100.00
2024-05-09T06:10:41.934Z,100.00
2024-05-09T06:13:13.126Z,100.00
2024-05-09T06:15:41.468Z,100.00
2024-05-09T06:18:10.983Z,100.00
2024-05-09T06:20:40.359Z,100.00
2024-05-09T06:23:09.723Z,100.00
2024-05-09T06:25:37.964Z,100.00
2024-05-09T06:28:05.694Z,100.00
2024-05-09T06:30:42.665Z,100.00
2024-05-09T06:33:13.202Z,100.00
2024-05-09T06:35:42.617Z,100.00
2024-05-09T06:38:09.949Z,100.00
2024-05-09T06:40:41.232Z,100.00
2024-05-09T06:43:18.872Z,100.00
2024-05-09T06:45:54.802Z,100.00
2024-05-09T06:48:22.813Z,100.00
2024-05-09T06:50:52.141Z,100.00
2024-05-09T06:53:23.489Z,100.00
2024-05-09T06:55:50.732Z,100.00
2024-05-09T06:58:18.103Z,100.00
2024-05-09T07:00:45.104Z,100.00
2024-05-09T07:03:16.673Z,100.00
2024-05-09T07:05:46.537Z,100.00
2024-05-09T07:08:14.606Z,100.00
2024-05-09T07:10:41.784Z,100.00
2024-05-09T07:13:13.670Z,100.00
2024-05-09T07:15:41.852Z,100.00
2024-05-09T07:18:20.252Z,100.00
2024-05-09T07:20:49.232Z,100.00
2024-05-09T07:23:17.962Z,100.00
2024-05-09T07:25:45.323Z,100.00
2024-05-09T07:28:17.918Z,100.00
2024-05-09T07:30:46.082Z,100.00
2024-05-09T07:33:22.911Z,100.00
2024-05-09T07:35:51.405Z,100.00
2024-05-09T07:38:18.908Z,100.00
2024-05-09T07:40:46.203Z,100.00
2024-05-09T07:43:14.585Z,100.00
2024-05-09T07:45:50.825Z,100.00
2024-05-09T07:52:37.809Z,100.00
2024-05-09T07:53:47.750Z,100.00
2024-05-09T07:56:20.382Z,100.00
2024-05-09T07:58:51.245Z,100.00
2024-05-09T08:01:18.787Z,100.00
2024-05-09T08:03:46.248Z,100.00
2024-05-09T08:06:13.498Z,100.00
2024-05-09T08:08:41.147Z,100.00
2024-05-09T08:11:08.145Z,100.00
2024-05-09T08:13:35.121Z,100.00
2024-05-09T08:16:02.176Z,100.00
2024-05-09T08:18:29.537Z,100.00
2024-05-09T08:20:56.736Z,100.00
2024-05-09T08:23:23.943Z,100.00
2024-05-09T08:25:52.799Z,100.00
2024-05-09T08:28:19.865Z,100.00
2024-05-09T08:30:46.957Z,100.00
2024-05-09T08:33:14.261Z,100.00
2024-05-09T08:35:42.040Z,100.00
2024-05-09T08:38:09.812Z,100.00
2024-05-09T08:40:38.022Z,100.00
2024-05-09T08:43:11.584Z,100.00
2024-05-09T08:45:44.056Z,100.00
2024-05-09T08:48:15.169Z,100.00
2024-05-09T08:50:44.838Z,100.00
2024-05-09T08:53:14.447Z,100.00
2024-05-09T08:55:43.462Z,100.00
2024-05-09T08:58:16.683Z,100.00
2024-05-09T09:00:46.170Z,100.00
2024-05-09T09:03:19.714Z,100.00
2024-05-09T09:06:09.201Z,100.00
2024-05-09T09:08:39.422Z,100.00
2024-05-09T09:11:06.678Z,100.00
2024-05-09T09:13:33.631Z,100.00
2024-05-09T09:16:02.676Z,96.05
2024-05-09T09:18:33.204Z,99.75
2024-05-09T09:21:00.372Z,99.30
2024-05-09T09:23:29.758Z,94.94
2024-05-09T09:26:00.611Z,96.03
2024-05-09T09:28:27.797Z,93.80
2024-05-09T09:31:03.268Z,92.90
2024-05-09T09:33:31.700Z,94.34
2024-05-09T09:36:00.602Z,94.69
2024-05-09T09:38:32.518Z,92.96
2024-05-09T09:41:01.521Z,90.25
2024-05-09T09:43:29.580Z,89.95
2024-05-09T09:45:59.891Z,87.73
2024-05-09T09:48:31.288Z,89.06
2024-05-09T09:50:59.581Z,89.97
2024-05-09T09:53:28.684Z,87.03
2024-05-09T09:55:56.202Z,88.19
2024-05-09T09:58:23.903Z,86.56
2024-05-09T10:00:51.068Z,87.37
2024-05-09T10:03:18.101Z,86.95
2024-05-09T10:05:47.150Z,85.86
2024-05-09T10:08:16.010Z,85.97
2024-05-09T10:10:47.576Z,83.37
2024-05-09T10:13:15.212Z,85.05
2024-05-09T10:15:46.430Z,84.89
2024-05-09T10:18:14.579Z,85.07
2024-05-09T10:20:46.454Z,80.10
2024-05-09T10:23:26.964Z,78.52
2024-05-09T10:26:05.334Z,77.84
2024-05-09T10:28:35.621Z,78.63
2024-05-09T10:31:15.696Z,77.36
2024-05-09T10:33:49.392Z,75.03
2024-05-09T10:36:26.823Z,72.16
2024-05-09T10:38:54.737Z,75.10
2024-05-09T10:41:23.473Z,73.30
2024-05-09T10:43:52.628Z,72.57
2024-05-09T10:46:20.224Z,71.58
2024-05-09T10:48:48.438Z,73.30
2024-05-09T10:51:19.534Z,73.06
2024-05-09T10:53:48.213Z,72.48
2024-05-09T10:56:15.888Z,72.56
2024-05-09T10:58:42.997Z,73.32
2024-05-09T11:01:10.988Z,71.93
2024-05-09T11:03:39.260Z,70.96
2024-05-09T11:06:07.215Z,71.48
2024-05-09T11:08:35.103Z,69.57
2024-05-09T11:11:07.166Z,69.90
2024-05-09T11:13:39.119Z,70.97
2024-05-09T11:16:21.888Z,71.12
2024-05-09T11:18:57.210Z,72.30
2024-05-09T11:21:24.899Z,71.75
2024-05-09T11:23:53.714Z,70.30
2024-05-09T11:26:22.060Z,70.38
2024-05-09T11:28:50.538Z,71.60
2024-05-09T11:31:18.145Z,70.59
2024-05-09T11:33:48.210Z,68.81
2024-05-09T11:36:15.818Z,68.01
2024-05-09T11:38:43.043Z,67.21
2024-05-09T11:41:18.023Z,66.34
2024-05-09T11:43:45.052Z,65.55
2024-05-09T11:46:12.211Z,62.75
2024-05-09T11:48:40.581Z,62.39
2024-05-09T11:51:07.717Z,62.72
2024-05-09T11:53:34.703Z,62.56
2024-05-09T11:56:01.650Z,62.26
2024-05-09T11:58:34.151Z,60.68
2024-05-09T12:01:02.159Z,60.53
2024-05-09T12:03:29.631Z,60.08
2024-05-09T12:05:57.009Z,60.38
2024-05-09T12:08:24.075Z,59.44
2024-05-09T12:10:52.183Z,59.32
2024-05-09T12:13:19.345Z,59.13
2024-05-09T12:15:46.405Z,60.31
2024-05-09T12:18:13.474Z,61.43
2024-05-09T12:20:40.531Z,59.62
2024-05-09T12:23:09.620Z,59.21
2024-05-09T12:25:38.748Z,60.13
2024-05-09T12:28:07.206Z,53.47
2024-05-09T12:30:38.476Z,47.47
2024-05-09T12:33:14.164Z,49.14
2024-05-09T12:35:44.380Z,50.36
2024-05-09T12:38:14.913Z,48.84
2024-05-09T12:40:42.716Z,52.10
2024-05-09T12:43:10.862Z,50.21
2024-05-09T12:45:39.368Z,53.03
2024-05-09T12:48:11.745Z,54.28
2024-05-09T12:50:40.403Z,55.19
2024-05-09T12:53:07.526Z,53.62
2024-05-09T12:55:41.386Z,54.11
2024-05-09T12:58:17.418Z,54.75
2024-05-09T13:00:45.320Z,54.32
2024-05-09T13:03:12.787Z,54.22
2024-05-09T13:05:41.443Z,54.54
2024-05-09T13:08:09.102Z,55.81
2024-05-09T13:10:36.766Z,54.40
2024-05-09T13:13:03.857Z,55.38
2024-05-09T13:15:31.591Z,55.08
2024-05-09T13:18:02.170Z,54.76
2024-05-09T13:20:34.428Z,52.21
2024-05-09T13:23:05.647Z,52.46
2024-05-09T13:25:37.739Z,52.75
2024-05-09T13:28:06.259Z,55.16
2024-05-09T13:30:39.786Z,55.57
2024-05-09T13:33:11.580Z,54.93
2024-05-09T13:35:45.530Z,53.66
2024-05-09T13:38:16.801Z,54.94
2024-05-09T13:40:43.986Z,52.06
2024-05-09T13:43:11.187Z,52.74
2024-05-09T13:45:38.241Z,49.82
2024-05-09T13:48:06.872Z,51.87
2024-05-09T13:50:36.340Z,52.63
2024-05-09T13:53:06.479Z,52.97
2024-05-09T13:55:35.105Z,50.62
2024-05-09T13:58:02.809Z,51.52
2024-05-09T14:02:59.808Z,51.98
2024-05-09T14:05:27.027Z,53.01
2024-05-09T14:07:54.114Z,51.89
2024-05-09T14:10:28.449Z,52.67
2024-05-09T14:12:57.923Z,52.43
2024-05-09T14:15:24.922Z,53.11
2024-05-09T14:17:51.960Z,52.57
2024-05-09T14:20:28.522Z,52.66
2024-05-09T14:22:59.249Z,51.67
2024-05-09T14:25:35.082Z,50.05
2024-05-09T14:28:04.145Z,47.99
2024-05-09T14:30:36.745Z,49.30
2024-05-09T14:33:06.639Z,46.85
2024-05-09T14:35:34.657Z,47.14
2024-05-09T14:38:02.068Z,48.16
2024-05-09T14:40:39.107Z,48.48
2024-05-09T14:43:14.883Z,49.42
2024-05-09T14:45:43.703Z,49.23
2024-05-09T14:48:14.142Z,48.91
2024-05-09T14:50:41.759Z,49.11
2024-05-09T14:53:11.031Z,48.70
2024-05-09T14:55:41.344Z,47.43
2024-05-09T14:58:12.136Z,48.76
2024-05-09T15:00:46.926Z,47.16
2024-05-09T15:03:18.741Z,45.71
2024-05-09T15:05:47.489Z,46.37
2024-05-09T15:08:16.738Z,44.19
2024-05-09T15:10:43.935Z,44.62
2024-05-09T15:13:13.467Z,43.13
2024-05-09T15:15:42.784Z,42.83
2024-05-09T15:18:10.153Z,44.20
2024-05-09T15:20:37.916Z,44.99
2024-05-09T15:23:07.011Z,45.61
2024-05-09T15:25:35.704Z,46.77
2024-05-09T15:28:03.749Z,46.90
2024-05-09T15:30:33.156Z,47.30
2024-05-09T15:33:06.041Z,46.63
2024-05-09T15:35:34.283Z,47.22
2024-05-09T15:38:03.215Z,47.04
2024-05-09T15:40:37.778Z,46.94
2024-05-09T15:43:09.131Z,47.68
2024-05-09T15:45:37.769Z,45.09
2024-05-09T15:48:06.006Z,45.97
2024-05-09T15:50:38.693Z,45.44
2024-05-09T15:53:09.906Z,46.42
2024-05-09T15:55:38.044Z,44.75
2024-05-09T15:58:06.419Z,46.45
2024-05-09T16:00:38.852Z,46.41
2024-05-09T16:03:10.490Z,45.35
2024-05-09T16:05:38.213Z,45.97
2024-05-09T16:08:07.289Z,45.86
2024-05-09T16:10:35.148Z,46.56
2024-05-09T16:13:03.543Z,45.83
2024-05-09T16:15:31.266Z,46.79
2024-05-09T16:17:58.478Z,47.22
2024-05-09T16:20:34.720Z,46.45
2024-05-09T16:23:07.813Z,47.31
2024-05-09T16:25:35.063Z,46.27
2024-05-09T16:28:07.049Z,46.48
2024-05-09T16:30:36.933Z,46.76
2024-05-09T16:33:05.525Z,46.28
2024-05-09T16:35:34.469Z,46.87
2024-05-09T16:38:02.771Z,46.29
2024-05-09T16:40:37.347Z,45.54
2024-05-09T16:43:10.905Z,46.71
2024-05-09T16:45:40.325Z,46.81
2024-05-09T16:48:08.526Z,45.53
2024-05-09T16:50:36.499Z,45.24
2024-05-09T16:53:06.246Z,46.01
2024-05-09T16:55:34.637Z,45.79
2024-05-09T16:58:02.687Z,45.45
2024-05-09T17:00:39.339Z,46.12
2024-05-09T17:03:14.700Z,45.76
2024-05-09T17:05:43.359Z,46.51
2024-05-09T17:08:10.616Z,46.98
2024-05-09T17:10:37.725Z,47.70
2024-05-09T17:13:06.828Z,46.46
2024-05-09T17:15:36.203Z,46.61
2024-05-09T17:18:04.854Z,46.97
2024-05-09T17:20:35.666Z,45.52
2024-05-09T17:23:12.361Z,46.47
2024-05-09T17:25:40.115Z,46.49
2024-05-09T17:28:08.337Z,47.02
2024-05-09T17:30:38.616Z,47.26
2024-05-09T17:33:09.414Z,47.15
2024-05-09T17:35:37.551Z,46.53
2024-05-09T17:38:08.279Z,46.59
2024-05-09T17:40:37.411Z,46.98
2024-05-09T17:43:08.460Z,47.16
2024-05-09T17:45:38.392Z,47.63
2024-05-09T17:48:06.584Z,48.33
2024-05-09T17:50:36.342Z,49.12
2024-05-09T17:53:08.232Z,48.76
2024-05-09T17:55:36.530Z,48.44
2024-05-09T17:58:05.119Z,49.32
2024-05-09T18:00:38.353Z,50.33
2024-05-09T18:03:11.726Z,50.03
2024-05-09T18:05:39.934Z,51.54
2024-05-09T18:08:08.135Z,52.64
2024-05-09T18:10:38.550Z,52.00
2024-05-09T18:13:09.000Z,53.64
2024-05-09T18:15:36.488Z,54.24
2024-05-09T18:18:04.604Z,54.21
2024-05-09T18:20:40.487Z,55.88
2024-05-09T18:23:13.054Z,57.34
2024-05-09T18:25:40.096Z,56.97
2024-05-09T18:28:07.707Z,57.99
2024-05-09T18:30:38.405Z,59.40
2024-05-09T18:33:07.679Z,59.46
2024-05-09T18:35:36.249Z,60.24
2024-05-09T18:38:04.074Z,59.95
2024-05-09T18:40:35.729Z,59.22
2024-05-09T18:43:07.591Z,60.65
2024-05-09T18:45:39.876Z,59.28
2024-05-09T18:48:09.672Z,58.40
2024-05-09T18:50:40.216Z,58.36
2024-05-09T18:53:12.727Z,60.01
2024-05-09T18:55:41.598Z,59.53
2024-05-09T18:58:08.727Z,61.73
2024-05-09T19:00:38.852Z,61.68
2024-05-09T19:03:10.938Z,63.22
2024-05-09T19:05:40.834Z,64.75
2024-05-09T19:08:08.821Z,66.46
2024-05-09T19:10:38.858Z,67.47
2024-05-09T19:13:10.897Z,68.33
2024-05-09T19:15:40.749Z,68.11
2024-05-09T19:18:09.480Z,68.38
2024-05-09T19:20:37.360Z,68.27
2024-05-09T19:23:06.149Z,69.01
2024-05-09T19:25:34.404Z,70.59
2024-05-09T19:28:01.654Z,70.54
2024-05-09T19:30:37.144Z,70.11
2024-05-09T19:33:08.422Z,69.38
2024-05-09T19:35:35.884Z,70.46
2024-05-09T19:38:03.090Z,69.99
2024-05-09T19:40:32.459Z,70.02
2024-05-09T19:43:02.694Z,70.23
2024-05-09T19:45:31.215Z,70.34
2024-05-09T19:47:58.765Z,70.64
2024-05-09T19:50:36.168Z,71.17
2024-05-09T19:53:08.785Z,71.95
2024-05-09T19:55:35.819Z,72.39
2024-05-09T19:58:05.443Z,72.89
2024-05-09T20:00:40.391Z,73.48
2024-05-09T20:03:11.286Z,74.35
2024-05-09T20:05:39.324Z,74.96
2024-05-09T20:08:07.156Z,74.59
2024-05-09T20:10:35.787Z,75.04
2024-05-09T20:13:06.678Z,75.44
2024-05-09T20:15:35.732Z,75.56
2024-05-09T20:18:03.410Z,76.11
2024-05-09T20:20:37.498Z,75.78
2024-05-09T20:23:09.201Z,75.89
2024-05-09T20:25:36.379Z,75.82
2024-05-09T20:28:03.577Z,76.27
2024-05-09T20:30:33.047Z,76.27
2024-05-09T20:33:07.350Z,76.55
2024-05-09T20:35:35.770Z,76.84
2024-05-09T20:38:03.654Z,77.01
2024-05-09T20:40:35.394Z,77.26
2024-05-09T20:43:06.745Z,76.50
2024-05-09T20:45:34.539Z,76.85
2024-05-09T20:48:02.174Z,76.77
2024-05-09T20:50:37.083Z,76.99
2024-05-09T20:53:13.121Z,76.75
2024-05-09T20:55:41.566Z,77.83
2024-05-09T20:58:09.632Z,78.42
2024-05-09T21:00:40.608Z,78.51
2024-05-09T21:03:11.649Z,78.43
2024-05-09T21:05:39.498Z,78.55
2024-05-09T21:08:07.538Z,78.90
2024-05-09T21:10:36.228Z,79.75
2024-05-09T21:13:04.207Z,79.87
2024-05-09T21:15:32.059Z,79.92
2024-05-09T21:17:59.691Z,79.76
2024-05-09T21:22:57.687Z,81.07
2024-05-09T21:25:24.708Z,81.20
2024-05-09T21:27:51.874Z,81.48
2024-05-09T21:30:28.143Z,82.93
2024-05-09T21:33:05.145Z,82.39
2024-05-09T21:35:32.254Z,82.30
2024-05-09T21:37:59.187Z,82.55
2024-05-09T21:40:33.425Z,82.58
2024-05-09T21:43:02.660Z,82.93
2024-05-09T21:45:29.819Z,82.48
2024-05-09T21:47:56.888Z,82.92
2024-05-09T21:50:31.834Z,83.02
2024-05-09T21:53:05.829Z,83.68
2024-05-09T21:55:32.782Z,84.69
2024-05-09T21:57:59.802Z,85.66
2024-05-09T22:00:34.619Z,85.92
2024-05-09T22:03:05.344Z,85.58
2024-05-09T22:05:32.858Z,85.75
2024-05-09T22:08:00.067Z,85.53
2024-05-09T22:10:33.261Z,86.18
2024-05-09T22:13:04.024Z,87.18
2024-05-09T22:15:35.361Z,87.28
2024-05-09T22:18:03.852Z,87.29
2024-05-09T22:20:36.896Z,88.44
2024-05-09T22:23:06.254Z,89.26
2024-05-09T22:25:33.714Z,89.81
2024-05-09T22:28:01.996Z,89.30
2024-05-09T22:32:59.203Z,90.49
2024-05-09T22:35:26.457Z,91.55
2024-05-09T22:37:53.510Z,91.25
2024-05-09T22:40:28.375Z,91.59
2024-05-09T22:43:04.803Z,91.14
2024-05-09T22:45:31.955Z,92.49
2024-05-09T22:47:59.371Z,92.75
2024-05-09T22:50:30.605Z,93.57
2024-05-09T22:52:59.658Z,92.46
2024-05-09T22:55:26.660Z,92.55
2024-05-09T22:57:53.631Z,92.51
2024-05-09T23:00:29.207Z,93.61
2024-05-09T23:03:02.714Z,93.08
2024-05-09T23:05:32.062Z,93.09
2024-05-09T23:08:00.997Z,92.80
2024-05-09T23:10:35.218Z,92.60
2024-05-09T23:13:05.412Z,92.89
2024-05-09T23:15:32.662Z,93.18
2024-05-09T23:17:59.897Z,93.00
2024-05-09T23:20:35.926Z,94.04
2024-05-09T23:23:10.599Z,94.05
2024-05-09T23:25:38.850Z,94.33
2024-05-09T23:28:06.418Z,94.82
2024-05-09T23:30:38.755Z,96.06
2024-05-09T23:33:10.994Z,96.77
2024-05-09T23:35:40.871Z,98.39
2024-05-09T23:38:07.889Z,99.85
2024-05-09T23:40:38.928Z,99.99
2024-05-09T23:43:09.732Z,99.71
2024-05-09T23:45:37.659Z,100.00
2024-05-09T23:48:06.203Z,100.00
2024-05-09T23:50:37.508Z,100.00
2024-05-09T23:53:07.998Z,100.00
2024-05-09T23:55:36.370Z,100.00
2024-05-09T23:58:03.582Z,100.00
